sensor_id;sensor_type;location;lat;lon;timestamp;P1;durP1;ratioP1;P2;durP2;ratioP2
16826;SDS011;8530;49.540;8.576;2023-03-16T00:00:55;14.20;;;12.80;;
16826;SDS011;8530;49.540;8.576;2023-03-16T00:03:22;12.40;;;10.77;;
16826;SDS011;8530;49.540;8.576;2023-03-16T00:05:50;17.37;;;12.63;;
16826;SDS011;8530;49.540;8.576;2023-03-16T00:08:19;13.57;;;12.17;;
16826;SDS011;8530;49.540;8.576;2023-03-16T00:10:45;15.10;;;12.43;;
16826;SDS011;8530;49.540;8.576;2023-03-16T00:13:12;14.30;;;12.80;;
16826;SDS011;8530;49.540;8.576;2023-03-16T00:15:39;13.67;;;11.60;;
16826;SDS011;8530;49.540;8.576;2023-03-16T00:18:08;15.10;;;11.30;;
16826;SDS011;8530;49.540;8.576;2023-03-16T00:20:34;15.40;;;11.83;;
16826;SDS011;8530;49.540;8.576;2023-03-16T00:23:01;15.60;;;11.70;;
16826;SDS011;8530;49.540;8.576;2023-03-16T00:25:28;15.20;;;12.50;;
16826;SDS011;8530;49.540;8.576;2023-03-16T00:27:57;13.50;;;11.60;;
16826;SDS011;8530;49.540;8.576;2023-03-16T00:30:27;16.30;;;13.23;;
16826;SDS011;8530;49.540;8.576;2023-03-16T00:32:54;15.63;;;13.30;;
16826;SDS011;8530;49.540;8.576;2023-03-16T00:35:22;14.67;;;10.70;;
16826;SDS011;8530;49.540;8.576;2023-03-16T00:37:49;13.73;;;11.30;;
16826;SDS011;8530;49.540;8.576;2023-03-16T00:40:15;14.60;;;11.00;;
16826;SDS011;8530;49.540;8.576;2023-03-16T00:42:42;17.10;;;12.10;;
16826;SDS011;8530;49.540;8.576;2023-03-16T00:45:09;17.60;;;12.50;;
16826;SDS011;8530;49.540;8.576;2023-03-16T00:47:36;14.03;;;11.93;;
16826;SDS011;8530;49.540;8.576;2023-03-16T00:50:03;15.13;;;11.90;;
16826;SDS011;8530;49.540;8.576;2023-03-16T00:52:31;12.50;;;11.00;;
16826;SDS011;8530;49.540;8.576;2023-03-16T00:54:59;14.30;;;12.10;;
16826;SDS011;8530;49.540;8.576;2023-03-16T00:57:27;15.53;;;11.60;;
16826;SDS011;8530;49.540;8.576;2023-03-16T00:59:54;11.93;;;10.17;;
16826;SDS011;8530;49.540;8.576;2023-03-16T01:02:21;15.10;;;11.53;;
16826;SDS011;8530;49.540;8.576;2023-03-16T01:04:48;18.70;;;11.47;;
16826;SDS011;8530;49.540;8.576;2023-03-16T01:07:16;13.07;;;10.33;;
16826;SDS011;8530;49.540;8.576;2023-03-16T01:09:44;13.03;;;11.50;;
16826;SDS011;8530;49.540;8.576;2023-03-16T01:12:12;16.70;;;11.47;;
16826;SDS011;8530;49.540;8.576;2023-03-16T01:14:40;13.30;;;11.00;;
16826;SDS011;8530;49.540;8.576;2023-03-16T01:17:09;14.57;;;11.13;;
16826;SDS011;8530;49.540;8.576;2023-03-16T01:19:38;13.90;;;11.40;;
16826;SDS011;8530;49.540;8.576;2023-03-16T01:22:05;12.17;;;10.17;;
16826;SDS011;8530;49.540;8.576;2023-03-16T01:24:33;15.43;;;11.87;;
16826;SDS011;8530;49.540;8.576;2023-03-16T01:27:02;11.23;;;10.13;;
16826;SDS011;8530;49.540;8.576;2023-03-16T01:29:30;18.43;;;12.87;;
16826;SDS011;8530;49.540;8.576;2023-03-16T01:31:57;13.20;;;11.27;;
16826;SDS011;8530;49.540;8.576;2023-03-16T01:34:24;13.83;;;12.43;;
16826;SDS011;8530;49.540;8.576;2023-03-16T01:36:51;18.53;;;11.90;;
16826;SDS011;8530;49.540;8.576;2023-03-16T01:39:18;14.50;;;12.10;;
16826;SDS011;8530;49.540;8.576;2023-03-16T01:41:45;17.40;;;12.17;;
16826;SDS011;8530;49.540;8.576;2023-03-16T01:44:15;15.50;;;12.27;;
16826;SDS011;8530;49.540;8.576;2023-03-16T01:46:44;17.30;;;14.03;;
16826;SDS011;8530;49.540;8.576;2023-03-16T01:49:11;13.63;;;12.10;;
16826;SDS011;8530;49.540;8.576;2023-03-16T01:51:40;18.10;;;13.50;;
16826;SDS011;8530;49.540;8.576;2023-03-16T01:54:10;13.43;;;12.03;;
16826;SDS011;8530;49.540;8.576;2023-03-16T01:56:44;16.07;;;14.33;;
16826;SDS011;8530;49.540;8.576;2023-03-16T01:59:21;20.50;;;15.23;;
16826;SDS011;8530;49.540;8.576;2023-03-16T02:01:51;15.17;;;13.33;;
16826;SDS011;8530;49.540;8.576;2023-03-16T02:04:23;20.13;;;15.10;;
16826;SDS011;8530;49.540;8.576;2023-03-16T02:06:58;19.27;;;12.93;;
16826;SDS011;8530;49.540;8.576;2023-03-16T02:09:26;18.60;;;13.90;;
16826;SDS011;8530;49.540;8.576;2023-03-16T02:11:54;22.03;;;14.93;;
16826;SDS011;8530;49.540;8.576;2023-03-16T02:14:23;20.43;;;14.67;;
16826;SDS011;8530;49.540;8.576;2023-03-16T02:16:49;14.93;;;12.30;;
16826;SDS011;8530;49.540;8.576;2023-03-16T02:19:19;20.00;;;14.50;;
16826;SDS011;8530;49.540;8.576;2023-03-16T02:21:57;17.73;;;12.90;;
16826;SDS011;8530;49.540;8.576;2023-03-16T02:24:27;17.40;;;13.27;;
16826;SDS011;8530;49.540;8.576;2023-03-16T02:26:55;19.10;;;14.03;;
16826;SDS011;8530;49.540;8.576;2023-03-16T02:32:16;16.47;;;13.53;;
16826;SDS011;8530;49.540;8.576;2023-03-16T02:34:44;16.50;;;12.33;;
16826;SDS011;8530;49.540;8.576;2023-03-16T02:37:11;17.90;;;13.53;;
16826;SDS011;8530;49.540;8.576;2023-03-16T02:39:38;23.23;;;13.50;;
16826;SDS011;8530;49.540;8.576;2023-03-16T02:42:08;18.30;;;13.97;;
16826;SDS011;8530;49.540;8.576;2023-03-16T02:44:37;17.73;;;14.03;;
16826;SDS011;8530;49.540;8.576;2023-03-16T02:47:10;18.93;;;14.80;;
16826;SDS011;8530;49.540;8.576;2023-03-16T02:49:42;16.83;;;11.70;;
16826;SDS011;8530;49.540;8.576;2023-03-16T02:52:11;17.67;;;13.87;;
16826;SDS011;8530;49.540;8.576;2023-03-16T02:54:37;14.57;;;12.87;;
16826;SDS011;8530;49.540;8.576;2023-03-16T02:57:04;15.43;;;11.87;;
16826;SDS011;8530;49.540;8.576;2023-03-16T02:59:31;17.03;;;13.17;;
16826;SDS011;8530;49.540;8.576;2023-03-16T03:01:58;15.13;;;11.13;;
16826;SDS011;8530;49.540;8.576;2023-03-16T03:04:26;20.83;;;13.07;;
16826;SDS011;8530;49.540;8.576;2023-03-16T03:06:53;14.40;;;12.60;;
16826;SDS011;8530;49.540;8.576;2023-03-16T03:09:20;15.77;;;12.40;;
16826;SDS011;8530;49.540;8.576;2023-03-16T03:11:46;15.20;;;12.70;;
16826;SDS011;8530;49.540;8.576;2023-03-16T03:14:14;18.60;;;14.60;;
16826;SDS011;8530;49.540;8.576;2023-03-16T03:16:41;15.93;;;13.20;;
16826;SDS011;8530;49.540;8.576;2023-03-16T03:19:10;15.50;;;13.40;;
16826;SDS011;8530;49.540;8.576;2023-03-16T03:21:38;15.77;;;12.33;;
16826;SDS011;8530;49.540;8.576;2023-03-16T03:24:05;22.90;;;14.60;;
16826;SDS011;8530;49.540;8.576;2023-03-16T03:26:32;17.13;;;13.70;;
16826;SDS011;8530;49.540;8.576;2023-03-16T03:28:59;17.83;;;14.10;;
16826;SDS011;8530;49.540;8.576;2023-03-16T03:31:26;18.90;;;14.60;;
16826;SDS011;8530;49.540;8.576;2023-03-16T03:33:53;14.27;;;11.30;;
16826;SDS011;8530;49.540;8.576;2023-03-16T03:36:19;15.87;;;13.17;;
16826;SDS011;8530;49.540;8.576;2023-03-16T03:38:48;16.63;;;13.90;;
16826;SDS011;8530;49.540;8.576;2023-03-16T03:41:15;18.10;;;13.77;;
16826;SDS011;8530;49.540;8.576;2023-03-16T03:43:42;16.00;;;13.40;;
16826;SDS011;8530;49.540;8.576;2023-03-16T03:46:09;17.20;;;13.80;;
16826;SDS011;8530;49.540;8.576;2023-03-16T03:48:36;17.47;;;14.20;;
16826;SDS011;8530;49.540;8.576;2023-03-16T03:51:02;14.90;;;12.60;;
16826;SDS011;8530;49.540;8.576;2023-03-16T03:53:30;15.60;;;13.20;;
16826;SDS011;8530;49.540;8.576;2023-03-16T03:55:58;15.40;;;13.47;;
16826;SDS011;8530;49.540;8.576;2023-03-16T03:58:25;16.90;;;12.57;;
16826;SDS011;8530;49.540;8.576;2023-03-16T04:00:52;14.73;;;12.40;;
16826;SDS011;8530;49.540;8.576;2023-03-16T04:03:18;20.20;;;13.07;;
16826;SDS011;8530;49.540;8.576;2023-03-16T04:05:45;15.33;;;12.60;;
16826;SDS011;8530;49.540;8.576;2023-03-16T04:08:12;15.70;;;12.60;;
16826;SDS011;8530;49.540;8.576;2023-03-16T04:10:39;19.30;;;13.87;;
16826;SDS011;8530;49.540;8.576;2023-03-16T04:13:07;21.10;;;16.17;;
16826;SDS011;8530;49.540;8.576;2023-03-16T04:15:34;17.73;;;13.73;;
16826;SDS011;8530;49.540;8.576;2023-03-16T04:18:02;17.00;;;13.00;;
16826;SDS011;8530;49.540;8.576;2023-03-16T04:20:29;21.97;;;14.90;;
16826;SDS011;8530;49.540;8.576;2023-03-16T04:22:56;15.50;;;13.83;;
16826;SDS011;8530;49.540;8.576;2023-03-16T04:25:23;18.77;;;14.83;;
16826;SDS011;8530;49.540;8.576;2023-03-16T04:27:51;16.83;;;13.83;;
16826;SDS011;8530;49.540;8.576;2023-03-16T04:30:19;14.57;;;12.33;;
16826;SDS011;8530;49.540;8.576;2023-03-16T04:32:47;19.23;;;15.30;;
16826;SDS011;8530;49.540;8.576;2023-03-16T04:35:15;15.13;;;13.60;;
16826;SDS011;8530;49.540;8.576;2023-03-16T04:37:41;23.60;;;15.70;;
16826;SDS011;8530;49.540;8.576;2023-03-16T04:40:09;17.43;;;14.70;;
16826;SDS011;8530;49.540;8.576;2023-03-16T04:42:40;18.10;;;14.40;;
16826;SDS011;8530;49.540;8.576;2023-03-16T04:45:08;18.50;;;14.40;;
16826;SDS011;8530;49.540;8.576;2023-03-16T04:47:37;20.27;;;17.17;;
16826;SDS011;8530;49.540;8.576;2023-03-16T04:50:04;17.07;;;15.27;;
16826;SDS011;8530;49.540;8.576;2023-03-16T04:52:32;17.87;;;15.70;;
16826;SDS011;8530;49.540;8.576;2023-03-16T04:54:59;16.20;;;14.03;;
16826;SDS011;8530;49.540;8.576;2023-03-16T04:57:25;20.70;;;15.73;;
16826;SDS011;8530;49.540;8.576;2023-03-16T04:59:52;18.83;;;15.10;;
16826;SDS011;8530;49.540;8.576;2023-03-16T05:02:19;18.10;;;15.30;;
16826;SDS011;8530;49.540;8.576;2023-03-16T05:04:47;17.30;;;15.50;;
16826;SDS011;8530;49.540;8.576;2023-03-16T05:07:14;17.23;;;14.87;;
16826;SDS011;8530;49.540;8.576;2023-03-16T05:09:41;15.87;;;13.40;;
16826;SDS011;8530;49.540;8.576;2023-03-16T05:12:08;18.90;;;15.07;;
16826;SDS011;8530;49.540;8.576;2023-03-16T05:14:35;23.00;;;16.40;;
16826;SDS011;8530;49.540;8.576;2023-03-16T05:17:02;17.67;;;15.03;;
16826;SDS011;8530;49.540;8.576;2023-03-16T05:19:29;20.30;;;15.17;;
16826;SDS011;8530;49.540;8.576;2023-03-16T05:21:57;20.00;;;15.20;;
16826;SDS011;8530;49.540;8.576;2023-03-16T05:24:23;18.20;;;14.40;;
16826;SDS011;8530;49.540;8.576;2023-03-16T05:26:50;15.63;;;12.80;;
16826;SDS011;8530;49.540;8.576;2023-03-16T05:29:17;15.90;;;14.30;;
16826;SDS011;8530;49.540;8.576;2023-03-16T05:31:44;18.33;;;13.53;;
16826;SDS011;8530;49.540;8.576;2023-03-16T05:34:11;17.23;;;15.33;;
16826;SDS011;8530;49.540;8.576;2023-03-16T05:36:38;18.37;;;15.67;;
16826;SDS011;8530;49.540;8.576;2023-03-16T05:39:07;18.30;;;14.23;;
16826;SDS011;8530;49.540;8.576;2023-03-16T05:41:34;18.70;;;15.73;;
16826;SDS011;8530;49.540;8.576;2023-03-16T05:44:01;18.93;;;14.93;;
16826;SDS011;8530;49.540;8.576;2023-03-16T05:46:28;20.37;;;15.87;;
16826;SDS011;8530;49.540;8.576;2023-03-16T05:48:55;19.13;;;16.27;;
16826;SDS011;8530;49.540;8.576;2023-03-16T05:51:21;17.87;;;13.67;;
16826;SDS011;8530;49.540;8.576;2023-03-16T05:53:50;19.30;;;15.20;;
16826;SDS011;8530;49.540;8.576;2023-03-16T05:56:21;21.43;;;16.20;;
16826;SDS011;8530;49.540;8.576;2023-03-16T05:58:49;15.23;;;13.57;;
16826;SDS011;8530;49.540;8.576;2023-03-16T06:01:16;16.67;;;13.37;;
16826;SDS011;8530;49.540;8.576;2023-03-16T06:03:42;23.17;;;17.10;;
16826;SDS011;8530;49.540;8.576;2023-03-16T06:06:09;19.60;;;14.67;;
16826;SDS011;8530;49.540;8.576;2023-03-16T06:08:36;17.53;;;15.17;;
16826;SDS011;8530;49.540;8.576;2023-03-16T06:11:03;21.07;;;16.00;;
16826;SDS011;8530;49.540;8.576;2023-03-16T06:13:31;17.67;;;14.93;;
16826;SDS011;8530;49.540;8.576;2023-03-16T06:15:57;16.57;;;14.03;;
16826;SDS011;8530;49.540;8.576;2023-03-16T06:18:25;15.90;;;13.57;;
16826;SDS011;8530;49.540;8.576;2023-03-16T06:20:52;14.20;;;12.40;;
16826;SDS011;8530;49.540;8.576;2023-03-16T06:23:19;19.30;;;15.30;;
16826;SDS011;8530;49.540;8.576;2023-03-16T06:25:45;25.73;;;15.60;;
16826;SDS011;8530;49.540;8.576;2023-03-16T06:28:12;20.30;;;16.80;;
16826;SDS011;8530;49.540;8.576;2023-03-16T06:30:41;22.00;;;17.20;;
16826;SDS011;8530;49.540;8.576;2023-03-16T06:33:08;18.37;;;15.90;;
16826;SDS011;8530;49.540;8.576;2023-03-16T06:35:34;19.93;;;15.83;;
16826;SDS011;8530;49.540;8.576;2023-03-16T06:38:01;18.30;;;13.80;;
16826;SDS011;8530;49.540;8.576;2023-03-16T06:40:28;15.43;;;13.30;;
16826;SDS011;8530;49.540;8.576;2023-03-16T06:42:55;22.73;;;15.57;;
16826;SDS011;8530;49.540;8.576;2023-03-16T06:45:21;16.77;;;13.70;;
16826;SDS011;8530;49.540;8.576;2023-03-16T06:47:51;21.90;;;13.87;;
16826;SDS011;8530;49.540;8.576;2023-03-16T06:50:17;18.13;;;15.07;;
16826;SDS011;8530;49.540;8.576;2023-03-16T06:52:45;17.97;;;14.73;;
16826;SDS011;8530;49.540;8.576;2023-03-16T06:55:11;16.90;;;14.80;;
16826;SDS011;8530;49.540;8.576;2023-03-16T06:57:38;19.40;;;13.20;;
16826;SDS011;8530;49.540;8.576;2023-03-16T07:00:06;17.10;;;14.37;;
16826;SDS011;8530;49.540;8.576;2023-03-16T07:02:34;14.23;;;12.47;;
16826;SDS011;8530;49.540;8.576;2023-03-16T07:05:02;18.10;;;12.70;;
16826;SDS011;8530;49.540;8.576;2023-03-16T07:07:29;16.17;;;12.40;;
16826;SDS011;8530;49.540;8.576;2023-03-16T07:09:55;15.63;;;12.50;;
16826;SDS011;8530;49.540;8.576;2023-03-16T07:12:22;19.67;;;12.03;;
16826;SDS011;8530;49.540;8.576;2023-03-16T07:14:49;16.07;;;12.33;;
16826;SDS011;8530;49.540;8.576;2023-03-16T07:17:18;15.63;;;10.97;;
16826;SDS011;8530;49.540;8.576;2023-03-16T07:19:45;20.27;;;11.80;;
16826;SDS011;8530;49.540;8.576;2023-03-16T07:22:14;17.03;;;11.57;;
16826;SDS011;8530;49.540;8.576;2023-03-16T07:24:41;13.80;;;11.27;;
16826;SDS011;8530;49.540;8.576;2023-03-16T07:27:09;11.43;;;10.30;;
16826;SDS011;8530;49.540;8.576;2023-03-16T07:29:36;27.73;;;20.00;;
16826;SDS011;8530;49.540;8.576;2023-03-16T07:32:05;24.67;;;17.47;;
16826;SDS011;8530;49.540;8.576;2023-03-16T07:34:32;19.90;;;14.10;;
16826;SDS011;8530;49.540;8.576;2023-03-16T07:36:59;13.13;;;11.07;;
16826;SDS011;8530;49.540;8.576;2023-03-16T07:39:27;14.10;;;11.70;;
16826;SDS011;8530;49.540;8.576;2023-03-16T07:41:54;16.60;;;12.63;;
16826;SDS011;8530;49.540;8.576;2023-03-16T07:44:20;12.13;;;10.37;;
16826;SDS011;8530;49.540;8.576;2023-03-16T07:46:47;11.03;;;9.60;;
16826;SDS011;8530;49.540;8.576;2023-03-16T07:49:15;10.67;;;9.57;;
16826;SDS011;8530;49.540;8.576;2023-03-16T07:51:42;14.43;;;11.10;;
16826;SDS011;8530;49.540;8.576;2023-03-16T07:54:08;11.10;;;9.93;;
16826;SDS011;8530;49.540;8.576;2023-03-16T07:56:36;13.03;;;10.30;;
16826;SDS011;8530;49.540;8.576;2023-03-16T07:59:03;10.47;;;9.07;;
16826;SDS011;8530;49.540;8.576;2023-03-16T08:01:30;11.40;;;9.03;;
16826;SDS011;8530;49.540;8.576;2023-03-16T08:03:58;9.83;;;8.80;;
16826;SDS011;8530;49.540;8.576;2023-03-16T08:06:25;11.43;;;8.73;;
16826;SDS011;8530;49.540;8.576;2023-03-16T08:08:52;8.90;;;8.10;;
16826;SDS011;8530;49.540;8.576;2023-03-16T08:11:19;8.57;;;7.20;;
16826;SDS011;8530;49.540;8.576;2023-03-16T08:13:49;9.10;;;7.27;;
16826;SDS011;8530;49.540;8.576;2023-03-16T08:16:18;7.77;;;6.23;;
16826;SDS011;8530;49.540;8.576;2023-03-16T08:18:45;7.10;;;6.00;;
16826;SDS011;8530;49.540;8.576;2023-03-16T08:21:13;7.83;;;7.03;;
16826;SDS011;8530;49.540;8.576;2023-03-16T08:23:41;6.43;;;5.80;;
16826;SDS011;8530;49.540;8.576;2023-03-16T08:26:13;6.37;;;5.63;;
16826;SDS011;8530;49.540;8.576;2023-03-16T08:28:42;6.37;;;5.77;;
16826;SDS011;8530;49.540;8.576;2023-03-16T08:31:12;7.37;;;6.67;;
16826;SDS011;8530;49.540;8.576;2023-03-16T08:33:39;9.23;;;5.63;;
16826;SDS011;8530;49.540;8.576;2023-03-16T08:36:07;6.87;;;5.60;;
16826;SDS011;8530;49.540;8.576;2023-03-16T08:38:35;6.37;;;5.77;;
16826;SDS011;8530;49.540;8.576;2023-03-16T08:41:04;5.83;;;5.23;;
16826;SDS011;8530;49.540;8.576;2023-03-16T08:43:31;5.90;;;5.07;;
16826;SDS011;8530;49.540;8.576;2023-03-16T08:45:57;6.17;;;5.63;;
16826;SDS011;8530;49.540;8.576;2023-03-16T08:48:26;6.40;;;5.80;;
16826;SDS011;8530;49.540;8.576;2023-03-16T08:50:54;6.37;;;5.73;;
16826;SDS011;8530;49.540;8.576;2023-03-16T08:53:20;9.27;;;5.90;;
16826;SDS011;8530;49.540;8.576;2023-03-16T08:55:47;6.50;;;5.33;;
16826;SDS011;8530;49.540;8.576;2023-03-16T08:58:14;7.00;;;5.33;;
16826;SDS011;8530;49.540;8.576;2023-03-16T09:00:41;7.03;;;5.83;;
16826;SDS011;8530;49.540;8.576;2023-03-16T09:03:07;8.10;;;5.80;;
16826;SDS011;8530;49.540;8.576;2023-03-16T09:05:36;10.40;;;5.80;;
16826;SDS011;8530;49.540;8.576;2023-03-16T09:08:03;7.00;;;6.30;;
16826;SDS011;8530;49.540;8.576;2023-03-16T09:10:30;5.90;;;5.33;;
16826;SDS011;8530;49.540;8.576;2023-03-16T09:12:57;7.50;;;6.50;;
16826;SDS011;8530;49.540;8.576;2023-03-16T09:15:23;10.37;;;7.60;;
16826;SDS011;8530;49.540;8.576;2023-03-16T09:17:50;7.67;;;6.37;;
16826;SDS011;8530;49.540;8.576;2023-03-16T09:20:18;8.00;;;6.27;;
16826;SDS011;8530;49.540;8.576;2023-03-16T09:22:46;6.93;;;4.87;;
16826;SDS011;8530;49.540;8.576;2023-03-16T09:25:14;6.10;;;4.10;;
16826;SDS011;8530;49.540;8.576;2023-03-16T09:27:41;5.70;;;5.10;;
16826;SDS011;8530;49.540;8.576;2023-03-16T09:30:09;4.43;;;4.00;;
16826;SDS011;8530;49.540;8.576;2023-03-16T09:32:37;7.87;;;5.10;;
16826;SDS011;8530;49.540;8.576;2023-03-16T09:35:04;6.13;;;4.90;;
16826;SDS011;8530;49.540;8.576;2023-03-16T09:37:31;4.77;;;4.30;;
16826;SDS011;8530;49.540;8.576;2023-03-16T09:40:00;6.00;;;4.23;;
16826;SDS011;8530;49.540;8.576;2023-03-16T09:42:28;5.83;;;5.13;;
16826;SDS011;8530;49.540;8.576;2023-03-16T09:45:03;5.90;;;4.97;;
16826;SDS011;8530;49.540;8.576;2023-03-16T09:47:37;6.17;;;4.90;;
16826;SDS011;8530;49.540;8.576;2023-03-16T09:50:06;6.67;;;4.50;;
16826;SDS011;8530;49.540;8.576;2023-03-16T09:52:39;5.10;;;4.43;;
16826;SDS011;8530;49.540;8.576;2023-03-16T09:55:18;6.03;;;4.57;;
16826;SDS011;8530;49.540;8.576;2023-03-16T09:57:52;4.87;;;4.27;;
16826;SDS011;8530;49.540;8.576;2023-03-16T10:00:20;4.57;;;4.17;;
16826;SDS011;8530;49.540;8.576;2023-03-16T10:02:54;8.43;;;4.80;;
16826;SDS011;8530;49.540;8.576;2023-03-16T10:05:25;6.00;;;4.37;;
16826;SDS011;8530;49.540;8.576;2023-03-16T10:07:56;6.00;;;3.97;;
16826;SDS011;8530;49.540;8.576;2023-03-16T10:10:46;4.43;;;4.03;;
16826;SDS011;8530;49.540;8.576;2023-03-16T10:13:29;4.93;;;4.43;;
16826;SDS011;8530;49.540;8.576;2023-03-16T10:16:02;5.43;;;4.43;;
16826;SDS011;8530;49.540;8.576;2023-03-16T10:18:34;3.77;;;3.37;;
16826;SDS011;8530;49.540;8.576;2023-03-16T10:21:09;6.20;;;4.30;;
16826;SDS011;8530;49.540;8.576;2023-03-16T10:23:38;4.13;;;3.43;;
16826;SDS011;8530;49.540;8.576;2023-03-16T10:26:10;4.90;;;3.60;;
16826;SDS011;8530;49.540;8.576;2023-03-16T10:28:40;4.90;;;4.27;;
16826;SDS011;8530;49.540;8.576;2023-03-16T10:31:09;6.80;;;4.10;;
16826;SDS011;8530;49.540;8.576;2023-03-16T10:33:38;4.73;;;3.90;;
16826;SDS011;8530;49.540;8.576;2023-03-16T10:36:11;11.67;;;4.80;;
16826;SDS011;8530;49.540;8.576;2023-03-16T10:38:40;6.27;;;4.60;;
16826;SDS011;8530;49.540;8.576;2023-03-16T10:41:19;6.50;;;4.47;;
16826;SDS011;8530;49.540;8.576;2023-03-16T10:43:50;4.73;;;4.33;;
16826;SDS011;8530;49.540;8.576;2023-03-16T10:46:19;5.03;;;4.40;;
16826;SDS011;8530;49.540;8.576;2023-03-16T10:48:50;5.97;;;3.80;;
16826;SDS011;8530;49.540;8.576;2023-03-16T10:51:23;5.63;;;4.47;;
16826;SDS011;8530;49.540;8.576;2023-03-16T10:53:55;4.10;;;3.70;;
16826;SDS011;8530;49.540;8.576;2023-03-16T10:56:30;5.00;;;4.50;;
16826;SDS011;8530;49.540;8.576;2023-03-16T10:58:59;5.40;;;3.80;;
16826;SDS011;8530;49.540;8.576;2023-03-16T11:01:27;5.47;;;4.50;;
16826;SDS011;8530;49.540;8.576;2023-03-16T11:03:55;5.10;;;4.27;;
16826;SDS011;8530;49.540;8.576;2023-03-16T11:06:24;5.83;;;4.73;;
16826;SDS011;8530;49.540;8.576;2023-03-16T11:09:00;5.00;;;4.60;;
16826;SDS011;8530;49.540;8.576;2023-03-16T11:11:33;5.27;;;4.77;;
16826;SDS011;8530;49.540;8.576;2023-03-16T11:14:02;5.60;;;4.73;;
16826;SDS011;8530;49.540;8.576;2023-03-16T11:16:37;5.23;;;4.73;;
16826;SDS011;8530;49.540;8.576;2023-03-16T11:19:10;5.23;;;4.73;;
16826;SDS011;8530;49.540;8.576;2023-03-16T11:21:43;5.27;;;4.20;;
16826;SDS011;8530;49.540;8.576;2023-03-16T11:24:16;9.20;;;4.57;;
16826;SDS011;8530;49.540;8.576;2023-03-16T11:26:52;7.03;;;4.53;;
16826;SDS011;8530;49.540;8.576;2023-03-16T11:29:21;6.10;;;4.10;;
16826;SDS011;8530;49.540;8.576;2023-03-16T11:31:52;6.33;;;4.60;;
16826;SDS011;8530;49.540;8.576;2023-03-16T11:34:21;4.93;;;4.53;;
16826;SDS011;8530;49.540;8.576;2023-03-16T11:36:53;6.10;;;4.83;;
16826;SDS011;8530;49.540;8.576;2023-03-16T11:39:29;4.37;;;3.73;;
16826;SDS011;8530;49.540;8.576;2023-03-16T11:42:03;5.10;;;4.23;;
16826;SDS011;8530;49.540;8.576;2023-03-16T11:44:42;5.23;;;3.97;;
16826;SDS011;8530;49.540;8.576;2023-03-16T11:47:21;4.87;;;4.33;;
16826;SDS011;8530;49.540;8.576;2023-03-16T11:50:00;6.27;;;4.83;;
16826;SDS011;8530;49.540;8.576;2023-03-16T11:52:38;6.03;;;4.10;;
16826;SDS011;8530;49.540;8.576;2023-03-16T11:55:20;4.73;;;4.30;;
16826;SDS011;8530;49.540;8.576;2023-03-16T11:57:58;11.53;;;4.90;;
16826;SDS011;8530;49.540;8.576;2023-03-16T12:00:39;4.87;;;4.43;;
16826;SDS011;8530;49.540;8.576;2023-03-16T12:03:23;6.00;;;3.67;;
16826;SDS011;8530;49.540;8.576;2023-03-16T12:06:01;4.70;;;3.83;;
16826;SDS011;8530;49.540;8.576;2023-03-16T12:08:41;4.20;;;3.73;;
16826;SDS011;8530;49.540;8.576;2023-03-16T12:11:21;10.60;;;3.60;;
16826;SDS011;8530;49.540;8.576;2023-03-16T12:16:43;7.10;;;4.20;;
16826;SDS011;8530;49.540;8.576;2023-03-16T12:19:14;4.60;;;4.20;;
16826;SDS011;8530;49.540;8.576;2023-03-16T12:21:46;7.67;;;4.03;;
16826;SDS011;8530;49.540;8.576;2023-03-16T12:24:20;7.30;;;4.20;;
16826;SDS011;8530;49.540;8.576;2023-03-16T12:26:51;4.67;;;4.20;;
16826;SDS011;8530;49.540;8.576;2023-03-16T12:29:20;4.43;;;4.03;;
16826;SDS011;8530;49.540;8.576;2023-03-16T12:31:56;3.87;;;3.47;;
16826;SDS011;8530;49.540;8.576;2023-03-16T12:34:28;5.40;;;3.97;;
16826;SDS011;8530;49.540;8.576;2023-03-16T12:37:05;3.67;;;3.37;;
16826;SDS011;8530;49.540;8.576;2023-03-16T12:39:54;4.07;;;3.67;;
16826;SDS011;8530;49.540;8.576;2023-03-16T12:42:39;6.90;;;2.83;;
16826;SDS011;8530;49.540;8.576;2023-03-16T12:45:15;4.30;;;3.47;;
16826;SDS011;8530;49.540;8.576;2023-03-16T12:47:49;6.17;;;3.73;;
16826;SDS011;8530;49.540;8.576;2023-03-16T12:50:23;6.10;;;3.70;;
16826;SDS011;8530;49.540;8.576;2023-03-16T12:52:51;8.23;;;5.60;;
16826;SDS011;8530;49.540;8.576;2023-03-16T12:55:19;7.23;;;3.30;;
16826;SDS011;8530;49.540;8.576;2023-03-16T12:57:57;4.57;;;3.90;;
16826;SDS011;8530;49.540;8.576;2023-03-16T13:00:32;3.77;;;3.47;;
16826;SDS011;8530;49.540;8.576;2023-03-16T13:03:01;4.57;;;3.90;;
16826;SDS011;8530;49.540;8.576;2023-03-16T13:05:30;8.10;;;4.47;;
16826;SDS011;8530;49.540;8.576;2023-03-16T13:08:06;5.13;;;4.07;;
16826;SDS011;8530;49.540;8.576;2023-03-16T13:10:35;8.40;;;4.37;;
16826;SDS011;8530;49.540;8.576;2023-03-16T13:13:06;5.90;;;3.83;;
16826;SDS011;8530;49.540;8.576;2023-03-16T13:15:38;4.33;;;3.83;;
16826;SDS011;8530;49.540;8.576;2023-03-16T13:18:18;6.17;;;4.07;;
16826;SDS011;8530;49.540;8.576;2023-03-16T13:20:53;5.50;;;5.00;;
16826;SDS011;8530;49.540;8.576;2023-03-16T13:23:23;6.77;;;4.93;;
16826;SDS011;8530;49.540;8.576;2023-03-16T13:25:59;6.77;;;4.90;;
16826;SDS011;8530;49.540;8.576;2023-03-16T13:28:35;6.00;;;3.90;;
16826;SDS011;8530;49.540;8.576;2023-03-16T13:31:05;4.20;;;3.80;;
16826;SDS011;8530;49.540;8.576;2023-03-16T13:33:45;5.50;;;3.70;;
16826;SDS011;8530;49.540;8.576;2023-03-16T13:36:13;4.30;;;3.90;;
16826;SDS011;8530;49.540;8.576;2023-03-16T13:38:41;5.80;;;4.23;;
16826;SDS011;8530;49.540;8.576;2023-03-16T13:41:09;5.93;;;4.13;;
16826;SDS011;8530;49.540;8.576;2023-03-16T13:43:40;4.57;;;4.00;;
16826;SDS011;8530;49.540;8.576;2023-03-16T13:46:16;6.27;;;5.60;;
16826;SDS011;8530;49.540;8.576;2023-03-16T13:48:45;6.47;;;4.30;;
16826;SDS011;8530;49.540;8.576;2023-03-16T13:51:13;4.23;;;3.80;;
16826;SDS011;8530;49.540;8.576;2023-03-16T13:53:41;4.10;;;3.70;;
16826;SDS011;8530;49.540;8.576;2023-03-16T13:56:11;4.83;;;3.70;;
16826;SDS011;8530;49.540;8.576;2023-03-16T13:58:39;6.67;;;3.33;;
16826;SDS011;8530;49.540;8.576;2023-03-16T14:01:12;3.77;;;3.13;;
16826;SDS011;8530;49.540;8.576;2023-03-16T14:03:47;3.83;;;3.43;;
16826;SDS011;8530;49.540;8.576;2023-03-16T14:06:17;4.37;;;3.57;;
16826;SDS011;8530;49.540;8.576;2023-03-16T14:08:48;3.83;;;3.47;;
16826;SDS011;8530;49.540;8.576;2023-03-16T14:11:17;4.07;;;3.67;;
16826;SDS011;8530;49.540;8.576;2023-03-16T14:13:51;5.73;;;4.13;;
16826;SDS011;8530;49.540;8.576;2023-03-16T14:16:22;3.60;;;3.27;;
16826;SDS011;8530;49.540;8.576;2023-03-16T14:18:53;5.93;;;3.77;;
16826;SDS011;8530;49.540;8.576;2023-03-16T14:21:26;5.63;;;3.10;;
16826;SDS011;8530;49.540;8.576;2023-03-16T14:23:55;5.80;;;3.40;;
16826;SDS011;8530;49.540;8.576;2023-03-16T14:26:24;3.40;;;3.10;;
16826;SDS011;8530;49.540;8.576;2023-03-16T14:28:55;5.90;;;3.83;;
16826;SDS011;8530;49.540;8.576;2023-03-16T14:31:31;5.77;;;4.03;;
16826;SDS011;8530;49.540;8.576;2023-03-16T14:34:00;4.23;;;3.10;;
16826;SDS011;8530;49.540;8.576;2023-03-16T14:36:35;5.63;;;3.50;;
16826;SDS011;8530;49.540;8.576;2023-03-16T14:39:10;5.53;;;3.70;;
16826;SDS011;8530;49.540;8.576;2023-03-16T14:41:37;8.30;;;4.13;;
16826;SDS011;8530;49.540;8.576;2023-03-16T14:44:05;5.83;;;3.53;;
16826;SDS011;8530;49.540;8.576;2023-03-16T14:46:45;5.00;;;2.77;;
16826;SDS011;8530;49.540;8.576;2023-03-16T14:49:17;6.00;;;3.60;;
16826;SDS011;8530;49.540;8.576;2023-03-16T14:51:47;4.13;;;3.73;;
16826;SDS011;8530;49.540;8.576;2023-03-16T14:54:17;9.33;;;6.17;;
16826;SDS011;8530;49.540;8.576;2023-03-16T14:56:47;3.73;;;3.07;;
16826;SDS011;8530;49.540;8.576;2023-03-16T14:59:14;4.80;;;2.70;;
16826;SDS011;8530;49.540;8.576;2023-03-16T15:01:41;3.60;;;2.90;;
16826;SDS011;8530;49.540;8.576;2023-03-16T15:04:10;3.93;;;3.10;;